sensor_id;sensor_type;location;lat;lon;timestamp;temperature;humidity
79140;HTU21D;68546;59.142;37.948;2023-12-29T00:01:23;-1.08;65.82
79140;HTU21D;68546;59.142;37.948;2023-12-29T00:03:49;-1.09;65.81
79140;HTU21D;68546;59.142;37.948;2023-12-29T00:06:15;-1.09;65.85
79140;HTU21D;68546;59.142;37.948;2023-12-29T00:08:42;-1.10;65.83
79140;HTU21D;68546;59.142;37.948;2023-12-29T00:11:19;-1.09;65.84
79140;HTU21D;68546;59.142;37.948;2023-12-29T00:13:46;-1.11;65.91
79140;HTU21D;68546;59.142;37.948;2023-12-29T00:16:12;-1.10;65.94
79140;HTU21D;68546;59.142;37.948;2023-12-29T00:18:39;-1.10;66.04
79140;HTU21D;68546;59.142;37.948;2023-12-29T00:21:05;-1.11;65.96
79140;HTU21D;68546;59.142;37.948;2023-12-29T00:23:32;-1.11;65.98
79140;HTU21D;68546;59.142;37.948;2023-12-29T00:25:58;-1.09;65.98
79140;HTU21D;68546;59.142;37.948;2023-12-29T00:28:25;-1.09;65.75
79140;HTU21D;68546;59.142;37.948;2023-12-29T00:30:51;-1.06;65.66
79140;HTU21D;68546;59.142;37.948;2023-12-29T00:33:18;-1.06;65.27
79140;HTU21D;68546;59.142;37.948;2023-12-29T00:35:45;-1.06;65.08
79140;HTU21D;68546;59.142;37.948;2023-12-29T00:38:11;-1.08;65.03
79140;HTU21D;68546;59.142;37.948;2023-12-29T00:40:38;-1.06;65.06
79140;HTU21D;68546;59.142;37.948;2023-12-29T00:43:04;-1.08;64.69
79140;HTU21D;68546;59.142;37.948;2023-12-29T00:45:31;-1.09;64.87
79140;HTU21D;68546;59.142;37.948;2023-12-29T00:48:02;-1.06;64.80
79140;HTU21D;68546;59.142;37.948;2023-12-29T00:50:30;-1.06;64.95
79140;HTU21D;68546;59.142;37.948;2023-12-29T00:52:57;-1.05;65.03
79140;HTU21D;68546;59.142;37.948;2023-12-29T00:55:23;-1.02;65.24
79140;HTU21D;68546;59.142;37.948;2023-12-29T00:57:50;-1.00;65.15
79140;HTU21D;68546;59.142;37.948;2023-12-29T01:00:17;-0.99;65.09
79140;HTU21D;68546;59.142;37.948;2023-12-29T01:02:43;-0.95;65.23
79140;HTU21D;68546;59.142;37.948;2023-12-29T01:05:10;-0.91;65.40
79140;HTU21D;68546;59.142;37.948;2023-12-29T01:07:36;-0.89;65.46
79140;HTU21D;68546;59.142;37.948;2023-12-29T01:10:03;-0.85;65.59
79140;HTU21D;68546;59.142;37.948;2023-12-29T01:12:30;-0.81;65.69
79140;HTU21D;68546;59.142;37.948;2023-12-29T01:14:56;-0.77;65.78
79140;HTU21D;68546;59.142;37.948;2023-12-29T01:17:23;-0.73;65.86
79140;HTU21D;68546;59.142;37.948;2023-12-29T01:19:49;-0.68;65.95
79140;HTU21D;68546;59.142;37.948;2023-12-29T01:22:16;-0.62;65.98
79140;HTU21D;68546;59.142;37.948;2023-12-29T01:24:42;-0.59;65.99
79140;HTU21D;68546;59.142;37.948;2023-12-29T01:27:09;-0.57;65.92
79140;HTU21D;68546;59.142;37.948;2023-12-29T01:29:35;-0.52;65.70
79140;HTU21D;68546;59.142;37.948;2023-12-29T01:32:02;-0.47;65.40
79140;HTU21D;68546;59.142;37.948;2023-12-29T01:34:29;-0.44;65.33
79140;HTU21D;68546;59.142;37.948;2023-12-29T01:37:02;-0.41;65.38
79140;HTU21D;68546;59.142;37.948;2023-12-29T01:39:29;-0.40;65.48
79140;HTU21D;68546;59.142;37.948;2023-12-29T01:41:56;-0.37;65.61
79140;HTU21D;68546;59.142;37.948;2023-12-29T01:44:22;-0.35;65.66
79140;HTU21D;68546;59.142;37.948;2023-12-29T01:46:50;-0.30;65.79
79140;HTU21D;68546;59.142;37.948;2023-12-29T01:49:21;-0.28;65.84
79140;HTU21D;68546;59.142;37.948;2023-12-29T01:51:52;-0.23;65.86
79140;HTU21D;68546;59.142;37.948;2023-12-29T01:54:20;-0.21;65.85
79140;HTU21D;68546;59.142;37.948;2023-12-29T01:56:49;-0.16;65.88
79140;HTU21D;68546;59.142;37.948;2023-12-29T01:59:16;-0.14;65.78
79140;HTU21D;68546;59.142;37.948;2023-12-29T02:01:43;-0.13;65.24
79140;HTU21D;68546;59.142;37.948;2023-12-29T02:04:12;-0.11;65.10
79140;HTU21D;68546;59.142;37.948;2023-12-29T02:06:40;-0.11;65.13
79140;HTU21D;68546;59.142;37.948;2023-12-29T02:09:06;-0.09;65.14
79140;HTU21D;68546;59.142;37.948;2023-12-29T02:11:32;-0.08;65.25
79140;HTU21D;68546;59.142;37.948;2023-12-29T02:13:59;-0.06;65.30
79140;HTU21D;68546;59.142;37.948;2023-12-29T02:16:40;-0.03;65.48
79140;HTU21D;68546;59.142;37.948;2023-12-29T02:21:43;-0.00;65.46
79140;HTU21D;68546;59.142;37.948;2023-12-29T02:24:10;0.02;65.42
79140;HTU21D;68546;59.142;37.948;2023-12-29T02:26:36;0.03;65.43
79140;HTU21D;68546;59.142;37.948;2023-12-29T02:29:06;0.06;65.43
79140;HTU21D;68546;59.142;37.948;2023-12-29T02:31:37;0.07;65.58
79140;HTU21D;68546;59.142;37.948;2023-12-29T02:34:07;0.08;65.56
79140;HTU21D;68546;59.142;37.948;2023-12-29T02:36:35;0.12;65.49
79140;HTU21D;68546;59.142;37.948;2023-12-29T02:39:11;0.12;65.44
79140;HTU21D;68546;59.142;37.948;2023-12-29T02:41:38;0.14;65.37
79140;HTU21D;68546;59.142;37.948;2023-12-29T02:44:06;0.14;65.34
79140;HTU21D;68546;59.142;37.948;2023-12-29T02:46:33;0.15;65.29
79140;HTU21D;68546;59.142;37.948;2023-12-29T02:48:59;0.15;65.28
79140;HTU21D;68546;59.142;37.948;2023-12-29T02:51:26;0.14;65.20
79140;HTU21D;68546;59.142;37.948;2023-12-29T02:53:52;0.14;65.14
79140;HTU21D;68546;59.142;37.948;2023-12-29T02:56:19;0.13;65.09
79140;HTU21D;68546;59.142;37.948;2023-12-29T02:58:45;0.13;65.07
79140;HTU21D;68546;59.142;37.948;2023-12-29T03:01:14;0.12;65.00
79140;HTU21D;68546;59.142;37.948;2023-12-29T03:03:40;0.10;64.94
79140;HTU21D;68546;59.142;37.948;2023-12-29T03:06:06;0.10;64.95
79140;HTU21D;68546;59.142;37.948;2023-12-29T03:08:33;0.09;65.04
79140;HTU21D;68546;59.142;37.948;2023-12-29T03:10:59;0.10;65.05
79140;HTU21D;68546;59.142;37.948;2023-12-29T03:13:26;0.12;65.03
79140;HTU21D;68546;59.142;37.948;2023-12-29T03:15:52;0.12;65.04
79140;HTU21D;68546;59.142;37.948;2023-12-29T03:18:19;0.14;65.02
79140;HTU21D;68546;59.142;37.948;2023-12-29T03:20:45;0.13;64.98
79140;HTU21D;68546;59.142;37.948;2023-12-29T03:23:12;0.15;64.97
79140;HTU21D;68546;59.142;37.948;2023-12-29T03:25:39;0.15;64.98
79140;HTU21D;68546;59.142;37.948;2023-12-29T03:28:05;0.17;65.03
79140;HTU21D;68546;59.142;37.948;2023-12-29T03:30:31;0.16;65.05
79140;HTU21D;68546;59.142;37.948;2023-12-29T03:32:58;0.18;65.12
79140;HTU21D;68546;59.142;37.948;2023-12-29T03:35:24;0.19;65.29
79140;HTU21D;68546;59.142;37.948;2023-12-29T03:37:51;0.21;65.38
79140;HTU21D;68546;59.142;37.948;2023-12-29T03:40:17;0.23;65.44
79140;HTU21D;68546;59.142;37.948;2023-12-29T03:42:43;0.27;65.50
79140;HTU21D;68546;59.142;37.948;2023-12-29T03:45:10;0.28;65.44
79140;HTU21D;68546;59.142;37.948;2023-12-29T03:47:36;0.29;65.39
79140;HTU21D;68546;59.142;37.948;2023-12-29T03:50:04;0.31;65.32
79140;HTU21D;68546;59.142;37.948;2023-12-29T03:52:31;0.31;65.29
79140;HTU21D;68546;59.142;37.948;2023-12-29T03:54:57;0.32;65.34
79140;HTU21D;68546;59.142;37.948;2023-12-29T03:57:24;0.34;65.36
79140;HTU21D;68546;59.142;37.948;2023-12-29T03:59:50;0.36;65.37
79140;HTU21D;68546;59.142;37.948;2023-12-29T04:02:16;0.37;65.38
79140;HTU21D;68546;59.142;37.948;2023-12-29T04:04:44;0.38;65.25
79140;HTU21D;68546;59.142;37.948;2023-12-29T04:07:10;0.38;65.04
79140;HTU21D;68546;59.142;37.948;2023-12-29T04:09:37;0.36;64.88
79140;HTU21D;68546;59.142;37.948;2023-12-29T04:12:03;0.35;64.79
79140;HTU21D;68546;59.142;37.948;2023-12-29T04:14:30;0.33;64.80
79140;HTU21D;68546;59.142;37.948;2023-12-29T04:16:56;0.32;64.87
79140;HTU21D;68546;59.142;37.948;2023-12-29T04:19:23;0.32;64.99
79140;HTU21D;68546;59.142;37.948;2023-12-29T04:21:49;0.33;65.04
79140;HTU21D;68546;59.142;37.948;2023-12-29T04:24:16;0.34;65.16
79140;HTU21D;68546;59.142;37.948;2023-12-29T04:26:42;0.34;65.20
79140;HTU21D;68546;59.142;37.948;2023-12-29T04:29:09;0.35;65.25
79140;HTU21D;68546;59.142;37.948;2023-12-29T04:31:35;0.38;65.25
79140;HTU21D;68546;59.142;37.948;2023-12-29T04:34:02;0.39;65.27
79140;HTU21D;68546;59.142;37.948;2023-12-29T04:36:29;0.40;65.24
79140;HTU21D;68546;59.142;37.948;2023-12-29T04:38:55;0.43;65.16
79140;HTU21D;68546;59.142;37.948;2023-12-29T04:41:22;0.44;65.07
79140;HTU21D;68546;59.142;37.948;2023-12-29T04:43:49;0.46;65.14
79140;HTU21D;68546;59.142;37.948;2023-12-29T04:46:15;0.45;65.17
79140;HTU21D;68546;59.142;37.948;2023-12-29T04:48:42;0.47;65.11
79140;HTU21D;68546;59.142;37.948;2023-12-29T04:51:08;0.48;65.08
79140;HTU21D;68546;59.142;37.948;2023-12-29T04:53:35;0.48;65.11
79140;HTU21D;68546;59.142;37.948;2023-12-29T04:56:01;0.50;65.08
79140;HTU21D;68546;59.142;37.948;2023-12-29T04:58:28;0.50;65.00
79140;HTU21D;68546;59.142;37.948;2023-12-29T05:00:55;0.50;64.98
79140;HTU21D;68546;59.142;37.948;2023-12-29T05:03:21;0.51;64.96
79140;HTU21D;68546;59.142;37.948;2023-12-29T05:05:48;0.51;64.95
79140;HTU21D;68546;59.142;37.948;2023-12-29T05:08:14;0.51;64.94
79140;HTU21D;68546;59.142;37.948;2023-12-29T05:10:41;0.53;64.91
79140;HTU21D;68546;59.142;37.948;2023-12-29T05:13:07;0.53;64.96
79140;HTU21D;68546;59.142;37.948;2023-12-29T05:15:34;0.54;64.94
79140;HTU21D;68546;59.142;37.948;2023-12-29T05:18:00;0.55;64.92
79140;HTU21D;68546;59.142;37.948;2023-12-29T05:20:27;0.55;64.94
79140;HTU21D;68546;59.142;37.948;2023-12-29T05:22:54;0.57;64.89
79140;HTU21D;68546;59.142;37.948;2023-12-29T05:25:20;0.58;64.93
79140;HTU21D;68546;59.142;37.948;2023-12-29T05:27:48;0.59;64.98
79140;HTU21D;68546;59.142;37.948;2023-12-29T05:30:14;0.60;64.97
79140;HTU21D;68546;59.142;37.948;2023-12-29T05:32:41;0.61;64.93
79140;HTU21D;68546;59.142;37.948;2023-12-29T05:35:07;0.62;64.92
79140;HTU21D;68546;59.142;37.948;2023-12-29T05:37:34;0.62;64.95
79140;HTU21D;68546;59.142;37.948;2023-12-29T05:40:00;0.64;64.97
79140;HTU21D;68546;59.142;37.948;2023-12-29T05:42:27;0.64;64.96
79140;HTU21D;68546;59.142;37.948;2023-12-29T05:44:53;0.66;64.98
79140;HTU21D;68546;59.142;37.948;2023-12-29T05:47:19;0.68;64.90
79140;HTU21D;68546;59.142;37.948;2023-12-29T05:49:46;0.68;64.82
79140;HTU21D;68546;59.142;37.948;2023-12-29T05:52:12;0.67;64.68
79140;HTU21D;68546;59.142;37.948;2023-12-29T05:54:39;0.66;64.63
79140;HTU21D;68546;59.142;37.948;2023-12-29T05:57:05;0.66;64.61
79140;HTU21D;68546;59.142;37.948;2023-12-29T05:59:31;0.65;64.53
79140;HTU21D;68546;59.142;37.948;2023-12-29T06:01:58;0.64;64.42
79140;HTU21D;68546;59.142;37.948;2023-12-29T06:04:24;0.63;64.36
79140;HTU21D;68546;59.142;37.948;2023-12-29T06:06:51;0.61;64.39
79140;HTU21D;68546;59.142;37.948;2023-12-29T06:09:17;0.62;64.48
79140;HTU21D;68546;59.142;37.948;2023-12-29T06:11:44;0.62;64.48
79140;HTU21D;68546;59.142;37.948;2023-12-29T06:14:10;0.61;64.46
79140;HTU21D;68546;59.142;37.948;2023-12-29T06:16:37;0.61;64.51
79140;HTU21D;68546;59.142;37.948;2023-12-29T06:19:03;0.62;64.51
79140;HTU21D;68546;59.142;37.948;2023-12-29T06:21:29;0.62;64.50
79140;HTU21D;68546;59.142;37.948;2023-12-29T06:23:56;0.64;64.50
79140;HTU21D;68546;59.142;37.948;2023-12-29T06:26:23;0.65;64.62
79140;HTU21D;68546;59.142;37.948;2023-12-29T06:28:49;0.67;64.70
79140;HTU21D;68546;59.142;37.948;2023-12-29T06:31:17;0.71;64.73
79140;HTU21D;68546;59.142;37.948;2023-12-29T06:33:43;0.69;64.67
79140;HTU21D;68546;59.142;37.948;2023-12-29T06:36:11;0.72;64.63
79140;HTU21D;68546;59.142;37.948;2023-12-29T06:38:38;0.72;64.61
79140;HTU21D;68546;59.142;37.948;2023-12-29T06:41:05;0.72;64.52
79140;HTU21D;68546;59.142;37.948;2023-12-29T06:43:31;0.73;64.52
79140;HTU21D;68546;59.142;37.948;2023-12-29T06:45:58;0.74;64.55
79140;HTU21D;68546;59.142;37.948;2023-12-29T06:48:24;0.74;64.50
79140;HTU21D;68546;59.142;37.948;2023-12-29T06:50:51;0.74;64.50
79140;HTU21D;68546;59.142;37.948;2023-12-29T06:53:17;0.76;64.59
79140;HTU21D;68546;59.142;37.948;2023-12-29T06:55:44;0.77;64.63
79140;HTU21D;68546;59.142;37.948;2023-12-29T06:58:11;0.79;64.69
79140;HTU21D;68546;59.142;37.948;2023-12-29T07:00:37;0.80;64.50
79140;HTU21D;68546;59.142;37.948;2023-12-29T07:03:04;0.80;64.35
79140;HTU21D;68546;59.142;37.948;2023-12-29T07:05:31;0.80;64.18
79140;HTU21D;68546;59.142;37.948;2023-12-29T07:07:58;0.79;64.08
79140;HTU21D;68546;59.142;37.948;2023-12-29T07:10:25;0.79;64.12
79140;HTU21D;68546;59.142;37.948;2023-12-29T07:12:51;0.79;64.17
79140;HTU21D;68546;59.142;37.948;2023-12-29T07:15:18;0.80;64.14
79140;HTU21D;68546;59.142;37.948;2023-12-29T07:17:44;0.80;64.19
79140;HTU21D;68546;59.142;37.948;2023-12-29T07:20:11;0.80;64.23
79140;HTU21D;68546;59.142;37.948;2023-12-29T07:22:37;0.80;64.14
79140;HTU21D;68546;59.142;37.948;2023-12-29T07:25:04;0.81;64.05
79140;HTU21D;68546;59.142;37.948;2023-12-29T07:27:31;0.81;63.98
79140;HTU21D;68546;59.142;37.948;2023-12-29T07:29:57;0.80;63.97
79140;HTU21D;68546;59.142;37.948;2023-12-29T07:32:24;0.80;63.97
79140;HTU21D;68546;59.142;37.948;2023-12-29T07:34:50;0.81;64.04
79140;HTU21D;68546;59.142;37.948;2023-12-29T07:37:17;0.80;64.05
79140;HTU21D;68546;59.142;37.948;2023-12-29T07:39:43;0.82;64.11
79140;HTU21D;68546;59.142;37.948;2023-12-29T07:42:10;0.83;64.19
79140;HTU21D;68546;59.142;37.948;2023-12-29T07:44:37;0.86;64.18
79140;HTU21D;68546;59.142;37.948;2023-12-29T07:47:04;0.87;64.15
79140;HTU21D;68546;59.142;37.948;2023-12-29T07:49:30;0.89;64.20
79140;HTU21D;68546;59.142;37.948;2023-12-29T07:51:56;0.91;64.34
79140;HTU21D;68546;59.142;37.948;2023-12-29T07:54:25;0.93;64.46
79140;HTU21D;68546;59.142;37.948;2023-12-29T07:56:51;0.96;64.34
79140;HTU21D;68546;59.142;37.948;2023-12-29T07:59:18;0.98;64.23
79140;HTU21D;68546;59.142;37.948;2023-12-29T08:01:44;0.99;64.12
79140;HTU21D;68546;59.142;37.948;2023-12-29T08:04:11;0.99;64.05
79140;HTU21D;68546;59.142;37.948;2023-12-29T08:06:38;1.01;64.11
79140;HTU21D;68546;59.142;37.948;2023-12-29T08:09:04;1.03;64.09
79140;HTU21D;68546;59.142;37.948;2023-12-29T08:11:33;1.04;64.11
79140;HTU21D;68546;59.142;37.948;2023-12-29T08:14:00;1.06;64.11
79140;HTU21D;68546;59.142;37.948;2023-12-29T08:16:27;1.06;64.05
79140;HTU21D;68546;59.142;37.948;2023-12-29T08:18:54;1.08;64.05
79140;HTU21D;68546;59.142;37.948;2023-12-29T08:21:20;1.09;63.99
79140;HTU21D;68546;59.142;37.948;2023-12-29T08:23:47;1.12;64.04
79140;HTU21D;68546;59.142;37.948;2023-12-29T08:26:14;1.13;64.02
79140;HTU21D;68546;59.142;37.948;2023-12-29T08:28:40;1.16;64.13
79140;HTU21D;68546;59.142;37.948;2023-12-29T08:31:07;1.17;64.11
79140;HTU21D;68546;59.142;37.948;2023-12-29T08:33:34;1.19;64.13
79140;HTU21D;68546;59.142;37.948;2023-12-29T08:36:02;1.21;64.19
79140;HTU21D;68546;59.142;37.948;2023-12-29T08:38:30;1.25;64.18
79140;HTU21D;68546;59.142;37.948;2023-12-29T08:40:57;1.26;64.07
79140;HTU21D;68546;59.142;37.948;2023-12-29T08:43:24;1.28;63.98
79140;HTU21D;68546;59.142;37.948;2023-12-29T08:45:50;1.31;63.94
79140;HTU21D;68546;59.142;37.948;2023-12-29T08:48:17;1.31;63.95
79140;HTU21D;68546;59.142;37.948;2023-12-29T08:50:43;1.33;63.98
79140;HTU21D;68546;59.142;37.948;2023-12-29T08:53:10;1.34;63.97
79140;HTU21D;68546;59.142;37.948;2023-12-29T08:55:36;1.36;63.82
79140;HTU21D;68546;59.142;37.948;2023-12-29T08:58:02;1.38;63.85
79140;HTU21D;68546;59.142;37.948;2023-12-29T09:00:29;1.39;63.82
79140;HTU21D;68546;59.142;37.948;2023-12-29T09:02:56;1.40;63.92
79140;HTU21D;68546;59.142;37.948;2023-12-29T09:05:23;1.42;63.88
79140;HTU21D;68546;59.142;37.948;2023-12-29T09:07:49;1.42;63.78
79140;HTU21D;68546;59.142;37.948;2023-12-29T09:10:16;1.42;63.72
79140;HTU21D;68546;59.142;37.948;2023-12-29T09:12:42;1.42;63.56
79140;HTU21D;68546;59.142;37.948;2023-12-29T09:15:09;1.41;63.48
79140;HTU21D;68546;59.142;37.948;2023-12-29T09:17:36;1.41;63.50
79140;HTU21D;68546;59.142;37.948;2023-12-29T09:20:02;1.40;63.51
79140;HTU21D;68546;59.142;37.948;2023-12-29T09:22:30;1.40;63.51
79140;HTU21D;68546;59.142;37.948;2023-12-29T09:24:56;1.40;63.47
79140;HTU21D;68546;59.142;37.948;2023-12-29T09:27:23;1.39;63.44
79140;HTU21D;68546;59.142;37.948;2023-12-29T09:29:50;1.37;63.47
79140;HTU21D;68546;59.142;37.948;2023-12-29T09:32:16;1.37;63.40
79140;HTU21D;68546;59.142;37.948;2023-12-29T09:34:43;1.37;63.39
79140;HTU21D;68546;59.142;37.948;2023-12-29T09:37:10;1.36;63.31
79140;HTU21D;68546;59.142;37.948;2023-12-29T09:39:36;1.34;63.35
79140;HTU21D;68546;59.142;37.948;2023-12-29T09:42:03;1.34;63.38
79140;HTU21D;68546;59.142;37.948;2023-12-29T09:44:31;1.33;63.37
79140;HTU21D;68546;59.142;37.948;2023-12-29T09:47:01;1.34;63.53
79140;HTU21D;68546;59.142;37.948;2023-12-29T09:49:37;1.35;63.47
79140;HTU21D;68546;59.142;37.948;2023-12-29T09:52:09;1.34;63.33
79140;HTU21D;68546;59.142;37.948;2023-12-29T09:54:37;1.33;63.31
79140;HTU21D;68546;59.142;37.948;2023-12-29T09:57:04;1.34;63.40
79140;HTU21D;68546;59.142;37.948;2023-12-29T09:59:34;1.36;63.40
79140;HTU21D;68546;59.142;37.948;2023-12-29T10:02:22;1.37;63.55
79140;HTU21D;68546;59.142;37.948;2023-12-29T10:04:49;1.38;63.58
79140;HTU21D;68546;59.142;37.948;2023-12-29T10:07:24;1.41;63.70
79140;HTU21D;68546;59.142;37.948;2023-12-29T10:09:57;1.41;63.72
79140;HTU21D;68546;59.142;37.948;2023-12-29T10:12:25;1.43;63.66
79140;HTU21D;68546;59.142;37.948;2023-12-29T10:17:51;1.46;63.58
79140;HTU21D;68546;59.142;37.948;2023-12-29T10:23:10;1.47;63.66
79140;HTU21D;68546;59.142;37.948;2023-12-29T10:25:40;1.48;63.69
79140;HTU21D;68546;59.142;37.948;2023-12-29T10:28:07;1.50;63.81
79140;HTU21D;68546;59.142;37.948;2023-12-29T10:30:35;1.52;63.88
79140;HTU21D;68546;59.142;37.948;2023-12-29T10:33:04;1.55;64.01
79140;HTU21D;68546;59.142;37.948;2023-12-29T10:35:31;1.57;63.79
79140;HTU21D;68546;59.142;37.948;2023-12-29T10:38:11;1.56;63.19
79140;HTU21D;68546;59.142;37.948;2023-12-29T10:40:38;1.54;62.28
79140;HTU21D;68546;59.142;37.948;2023-12-29T10:43:05;1.50;62.02
79140;HTU21D;68546;59.142;37.948;2023-12-29T10:45:33;1.42;61.96
79140;HTU21D;68546;59.142;37.948;2023-12-29T10:48:00;1.38;61.60
79140;HTU21D;68546;59.142;37.948;2023-12-29T10:50:28;1.32;61.63
79140;HTU21D;68546;59.142;37.948;2023-12-29T10:53:13;1.25;61.64
79140;HTU21D;68546;59.142;37.948;2023-12-29T10:55:39;1.19;61.63
79140;HTU21D;68546;59.142;37.948;2023-12-29T10:58:06;1.13;61.71
79140;HTU21D;68546;59.142;37.948;2023-12-29T11:00:32;1.10;61.73
79140;HTU21D;68546;59.142;37.948;2023-12-29T11:02:59;1.04;61.80
79140;HTU21D;68546;59.142;37.948;2023-12-29T11:05:26;0.99;61.98
79140;HTU21D;68546;59.142;37.948;2023-12-29T11:07:54;0.97;62.17
79140;HTU21D;68546;59.142;37.948;2023-12-29T11:10:21;0.97;62.39
79140;HTU21D;68546;59.142;37.948;2023-12-29T11:12:48;0.95;62.53
79140;HTU21D;68546;59.142;37.948;2023-12-29T11:15:16;0.96;62.49
79140;HTU21D;68546;59.142;37.948;2023-12-29T11:17:43;0.94;62.48
79140;HTU21D;68546;59.142;37.948;2023-12-29T11:20:16;0.95;62.47
79140;HTU21D;68546;59.142;37.948;2023-12-29T11:22:46;0.92;62.39
79140;HTU21D;68546;59.142;37.948;2023-12-29T11:25:13;0.91;62.34
79140;HTU21D;68546;59.142;37.948;2023-12-29T11:27:42;0.89;62.41
79140;HTU21D;68546;59.142;37.948;2023-12-29T11:30:09;0.89;62.60
79140;HTU21D;68546;59.142;37.948;2023-12-29T11:33:02;0.89;62.83
79140;HTU21D;68546;59.142;37.948;2023-12-29T11:36:10;0.89;63.00
79140;HTU21D;68546;59.142;37.948;2023-12-29T11:41:56;0.89;62.98
79140;HTU21D;68546;59.142;37.948;2023-12-29T11:44:26;0.88;62.83
79140;HTU21D;68546;59.142;37.948;2023-12-29T11:46:57;0.87;62.80
79140;HTU21D;68546;59.142;37.948;2023-12-29T11:49:24;0.87;62.82
79140;HTU21D;68546;59.142;37.948;2023-12-29T11:51:50;0.87;63.09
79140;HTU21D;68546;59.142;37.948;2023-12-29T11:54:25;0.88;63.33
79140;HTU21D;68546;59.142;37.948;2023-12-29T11:56:55;0.89;63.40
79140;HTU21D;68546;59.142;37.948;2023-12-29T12:01:53;0.93;63.40
79140;HTU21D;68546;59.142;37.948;2023-12-29T12:07:13;0.95;63.48
79140;HTU21D;68546;59.142;37.948;2023-12-29T12:09:39;0.95;63.48
79140;HTU21D;68546;59.142;37.948;2023-12-29T12:12:06;0.97;63.50
79140;HTU21D;68546;59.142;37.948;2023-12-29T12:14:52;0.97;63.42
79140;HTU21D;68546;59.142;37.948;2023-12-29T12:20:00;0.98;63.44
79140;HTU21D;68546;59.142;37.948;2023-12-29T12:22:30;0.97;63.47
79140;HTU21D;68546;59.142;37.948;2023-12-29T12:24:58;0.99;63.46
79140;HTU21D;68546;59.142;37.948;2023-12-29T12:27:28;1.01;63.54
79140;HTU21D;68546;59.142;37.948;2023-12-29T12:29:56;1.01;63.54
79140;HTU21D;68546;59.142;37.948;2023-12-29T12:32:27;1.01;63.56
79140;HTU21D;68546;59.142;37.948;2023-12-29T12:34:55;1.02;63.43
79140;HTU21D;68546;59.142;37.948;2023-12-29T12:37:24;1.02;63.35
79140;HTU21D;68546;59.142;37.948;2023-12-29T12:39:55;0.99;63.31
79140;HTU21D;68546;59.142;37.948;2023-12-29T12:42:23;0.99;63.21
79140;HTU21D;68546;59.142;37.948;2023-12-29T12:44:55;0.96;63.19
79140;HTU21D;68546;59.142;37.948;2023-12-29T12:47:27;0.95;63.23
79140;HTU21D;68546;59.142;37.948;2023-12-29T12:49:59;0.94;63.28
79140;HTU21D;68546;59.142;37.948;2023-12-29T12:52:30;0.92;63.32
79140;HTU21D;68546;59.142;37.948;2023-12-29T12:54:57;0.91;63.31
79140;HTU21D;68546;59.142;37.948;2023-12-29T12:57:24;0.91;63.37
79140;HTU21D;68546;59.142;37.948;2023-12-29T12:59:53;0.91;63.50
79140;HTU21D;68546;59.142;37.948;2023-12-29T13:02:20;0.93;63.64
79140;HTU21D;68546;59.142;37.948;2023-12-29T13:04:48;0.94;63.70
79140;HTU21D;68546;59.142;37.948;2023-12-29T13:07:16;0.94;63.77
79140;HTU21D;68546;59.142;37.948;2023-12-29T13:09:45;0.94;63.71
79140;HTU21D;68546;59.142;37.948;2023-12-29T13:12:12;0.95;63.60
79140;HTU21D;68546;59.142;37.948;2023-12-29T13:14:40;0.95;63.50
79140;HTU21D;68546;59.142;37.948;2023-12-29T13:17:08;0.94;63.57
79140;HTU21D;68546;59.142;37.948;2023-12-29T13:19:35;0.95;63.76
79140;HTU21D;68546;59.142;37.948;2023-12-29T13:22:02;0.95;63.89
79140;HTU21D;68546;59.142;37.948;2023-12-29T13:24:31;0.99;63.99
79140;HTU21D;68546;59.142;37.948;2023-12-29T13:27:06;1.02;63.95
79140;HTU21D;68546;59.142;37.948;2023-12-29T13:29:37;1.04;63.99
79140;HTU21D;68546;59.142;37.948;2023-12-29T13:32:15;1.06;63.98
79140;HTU21D;68546;59.142;37.948;2023-12-29T13:37:47;1.06;63.69
79140;HTU21D;68546;59.142;37.948;2023-12-29T13:40:34;1.05;63.60
79140;HTU21D;68546;59.142;37.948;2023-12-29T13:43:02;1.04;63.57
79140;HTU21D;68546;59.142;37.948;2023-12-29T13:45:31;1.05;63.63
79140;HTU21D;68546;59.142;37.948;2023-12-29T13:47:58;1.06;63.81
79140;HTU21D;68546;59.142;37.948;2023-12-29T13:50:25;1.06;63.86
79140;HTU21D;68546;59.142;37.948;2023-12-29T13:52:52;1.07;63.76
79140;HTU21D;68546;59.142;37.948;2023-12-29T13:55:23;1.09;63.60
79140;HTU21D;68546;59.142;37.948;2023-12-29T13:57:51;1.07;63.47
79140;HTU21D;68546;59.142;37.948;2023-12-29T14:00:22;1.07;63.52
79140;HTU21D;68546;59.142;37.948;2023-12-29T14:05:51;1.07;63.44
79140;HTU21D;68546;59.142;37.948;2023-12-29T14:08:24;1.06;63.36
79140;HTU21D;68546;59.142;37.948;2023-12-29T14:10:51;1.06;63.51
79140;HTU21D;68546;59.142;37.948;2023-12-29T14:13:20;1.06;63.60
79140;HTU21D;68546;59.142;37.948;2023-12-29T14:15:47;1.07;63.69
79140;HTU21D;68546;59.142;37.948;2023-12-29T14:21:00;1.08;63.76
79140;HTU21D;68546;59.142;37.948;2023-12-29T14:23:26;1.09;63.80
79140;HTU21D;68546;59.142;37.948;2023-12-29T14:26:02;1.11;63.93
79140;HTU21D;68546;59.142;37.948;2023-12-29T14:28:28;1.13;63.88
79140;HTU21D;68546;59.142;37.948;2023-12-29T14:31:02;1.14;63.73
79140;HTU21D;68546;59.142;37.948;2023-12-29T14:33:29;1.12;63.60
79140;HTU21D;68546;59.142;37.948;2023-12-29T14:35:55;1.12;63.56
79140;HTU21D;68546;59.142;37.948;2023-12-29T14:38:22;1.11;63.50
79140;HTU21D;68546;59.142;37.948;2023-12-29T14:40:50;1.10;63.48
79140;HTU21D;68546;59.142;37.948;2023-12-29T14:43:17;1.10;63.51
79140;HTU21D;68546;59.142;37.948;2023-12-29T14:45:44;1.10;63.54
79140;HTU21D;68546;59.142;37.948;2023-12-29T14:48:10;1.09;63.62
79140;HTU21D;68546;59.142;37.948;2023-12-29T14:50:37;1.09;63.59
79140;HTU21D;68546;59.142;37.948;2023-12-29T14:53:03;1.10;63.57
79140;HTU21D;68546;59.142;37.948;2023-12-29T14:55:30;1.09;63.53
79140;HTU21D;68546;59.142;37.948;2023-12-29T14:57:57;1.09;63.45
79140;HTU21D;68546;59.142;37.948;2023-12-29T15:00:23;1.09;63.47
79140;HTU21D;68546;59.142;37.948;2023-12-29T15:02:50;1.09;63.51
79140;HTU21D;68546;59.142;37.948;2023-12-29T15:05:16;1.08;63.50
79140;HTU21D;68546;59.142;37.948;2023-12-29T15:07:44;1.09;63.49
79140;HTU21D;68546;59.142;37.948;2023-12-29T15:10:10;1.09;63.56
79140;HTU21D;68546;59.142;37.948;2023-12-29T15:12:37;1.10;63.58
79140;HTU21D;68546;59.142;37.948;2023-12-29T15:15:07;1.10;63.45
79140;HTU21D;68546;59.142;37.948;2023-12-29T15:17:36;1.10;63.37
79140;HTU21D;68546;59.142;37.948;2023-12-29T15:20:02;1.09;63.35
79140;HTU21D;68546;59.142;37.948;2023-12-29T15:22:29;1.08;63.37
79140;HTU21D;68546;59.142;37.948;2023-12-29T15:24:56;1.09;63.40
79140;HTU21D;68546;59.142;37.948;2023-12-29T15:27:22;1.08;63.40
79140;HTU21D;68546;59.142;37.948;2023-12-29T15:29:48;1.08;63.50
79140;HTU21D;68546;59.142;37.948;2023-12-29T15:32:15;1.09;63.52
79140;HTU21D;68546;59.142;37.948;2023-12-29T15:34:41;1.08;63.56
79140;HTU21D;68546;59.142;37.948;2023-12-29T15:37:08;1.10;63.51
79140;HTU21D;68546;59.142;37.948;2023-12-29T15:39:34;1.11;63.49
79140;HTU21D;68546;59.142;37.948;2023-12-29T15:42:00;1.10;63.43
79140;HTU21D;68546;59.142;37.948;2023-12-29T15:44:27;1.09;63.45
79140;HTU21D;68546;59.142;37.948;2023-12-29T15:46:53;1.10;63.51